»·PEaware :: N850SN KSAN-KPDX

N850SN :: KSAN-KPDX

FLIGHT INFORMATION

Flight Status: Arrived
Operator: Privately registered:
United States
More flights under this callsign
Pilot: Lester F. (25731)
Aircraft: SOCATA TBM-850
(TBM8)
More flights by this aircraft type
Origin: KSAN San Diego Intl-Lindbergh
United States
Destination: KPDX Portland Intl
United States
More flights between these airports :: More routes between these airports
Route: PDZ BOILE LANDO EHF CZQ SAC RBL HANDY OED EUG UBG
File this flight plan on PilotEdge
Remarks:
Altitude:
(Current/Filed)
24,000ft
Speed:
(Current/Filed)
195kts
Departed: 01-Aug-20 05:02 AM
Arrived: 01-Aug-20 07:46 AM
Distance/Time
Traveled:
811nm/2:44
Distance/Time
To Go:
Arrived

Flight Plot

Page will automatically refresh every two minutes.


Map Options




Map Legend


Flown Route
Filed Route
Departure Airport
Arrival Airport
Navaid (VOR, NDB)
Fix

Horizontal Profiles

Position Reports

Time Latitude Longitude Heading Altitude Ground
Speed
01-Aug-20 05:00 34.518982 -118.122859 320 24042ft 283kts
01-Aug-20 05:01 34.579802 -118.183494 320 24048ft 283kts
01-Aug-20 05:02 34.640690 -118.244274 320 24055ft 283kts
01-Aug-20 05:03 34.701635 -118.305212 320 24067ft 283kts
01-Aug-20 05:04 34.762372 -118.366046 320 24064ft 283kts
01-Aug-20 05:05 34.823018 -118.426881 320 24182ft 281kts
01-Aug-20 05:06 34.883519 -118.487646 320 24296ft 282kts
01-Aug-20 05:07 34.944634 -118.549117 320 24193ft 288kts
01-Aug-20 05:08 35.006264 -118.611133 320 24193ft 285kts
01-Aug-20 05:09 35.067106 -118.673205 320 24204ft 284kts
01-Aug-20 05:10 35.127827 -118.734950 320 24216ft 284kts
01-Aug-20 05:11 35.188625 -118.796755 320 24158ft 285kts
01-Aug-20 05:12 35.249653 -118.858868 320 24082ft 286kts
01-Aug-20 05:13 35.310457 -118.920827 320 24077ft 284kts
01-Aug-20 05:14 35.371382 -118.982960 320 24042ft 284kts
01-Aug-20 05:15 35.431937 -119.044671 320 24035ft 283kts
01-Aug-20 05:16 35.496454 -119.099296 332 24024ft 282kts
01-Aug-20 05:17 35.567794 -119.139677 336 24025ft 281kts
01-Aug-20 05:18 35.639856 -119.177213 337 24025ft 281kts
01-Aug-20 05:19 35.712148 -119.214133 337 24026ft 281kts
01-Aug-20 05:20 35.784569 -119.250958 337 24027ft 281kts
01-Aug-20 05:21 35.856728 -119.287654 337 24027ft 281kts
01-Aug-20 05:22 35.928965 -119.324445 337 24025ft 281kts
01-Aug-20 05:23 36.001404 -119.361407 337 24025ft 281kts
01-Aug-20 05:24 36.073652 -119.398343 337 24020ft 283kts
01-Aug-20 05:25 36.147295 -119.436098 337 24021ft 289kts
01-Aug-20 05:26 36.221965 -119.474478 337 24021ft 292kts
01-Aug-20 05:27 36.297100 -119.513151 337 24019ft 293kts
01-Aug-20 05:28 36.372245 -119.551875 337 24019ft 292kts
01-Aug-20 05:29 36.447475 -119.590696 337 24019ft 292kts
01-Aug-20 05:30 36.522552 -119.629504 337 24018ft 293kts
01-Aug-20 05:31 36.597813 -119.668464 337 24016ft 294kts
01-Aug-20 05:32 36.673603 -119.707736 337 24015ft 294kts
01-Aug-20 05:33 36.749312 -119.746942 337 24014ft 294kts
01-Aug-20 05:34 36.825070 -119.785995 337 24016ft 295kts
01-Aug-20 05:35 36.896144 -119.836704 322 24015ft 295kts
01-Aug-20 05:36 36.959466 -119.901868 319 24015ft 295kts
01-Aug-20 05:38 37.021763 -119.968778 319 24015ft 295kts
01-Aug-20 05:39 37.083684 -120.036005 318 24016ft 294kts
01-Aug-20 05:40 37.145361 -120.103263 318 24011ft 293kts
01-Aug-20 05:41 37.206678 -120.170326 318 24013ft 292kts
01-Aug-20 05:42 37.267957 -120.237528 318 24013ft 292kts
01-Aug-20 05:43 37.329199 -120.304855 318 24004ft 292kts
01-Aug-20 05:44 37.390314 -120.372189 318 24004ft 292kts
01-Aug-20 05:45 37.451437 -120.439681 318 24004ft 292kts
01-Aug-20 05:46 37.512520 -120.507284 318 24006ft 292kts
01-Aug-20 05:47 37.573485 -120.574910 318 24006ft 292kts
01-Aug-20 05:48 37.634404 -120.642634 318 24006ft 292kts
01-Aug-20 05:49 37.695383 -120.710582 318 24008ft 292kts
01-Aug-20 05:50 37.756237 -120.778547 318 24010ft 293kts
01-Aug-20 05:51 37.817111 -120.846663 318 24012ft 289kts
01-Aug-20 05:52 37.876951 -120.913696 318 24013ft 287kts
01-Aug-20 05:53 37.936604 -120.980679 318 24015ft 286kts
01-Aug-20 05:53 37.986076 -121.036357 318 24016ft 285kts
01-Aug-20 05:55 38.055379 -121.114531 318 24017ft 285kts
01-Aug-20 05:56 38.114656 -121.181545 318 24016ft 285kts
01-Aug-20 05:56 38.164282 -121.237743 318 24013ft 286kts
01-Aug-20 05:58 38.233577 -121.316337 318 24012ft 286kts
01-Aug-20 05:58 38.283068 -121.372505 318 24012ft 286kts
01-Aug-20 06:00 38.352603 -121.451351 318 24013ft 286kts
01-Aug-20 06:00 38.402314 -121.507388 318 24013ft 286kts
01-Aug-20 06:01 38.470026 -121.559855 337 24012ft 286kts
01-Aug-20 06:02 38.544828 -121.595278 341 24012ft 286kts
01-Aug-20 06:03 38.620506 -121.627419 341 24011ft 286kts
01-Aug-20 06:04 38.696544 -121.658764 342 24013ft 286kts
01-Aug-20 06:05 38.772534 -121.689869 342 24013ft 286kts
01-Aug-20 06:06 38.848426 -121.720910 342 24013ft 286kts
01-Aug-20 06:07 38.924072 -121.751881 342 24015ft 285kts
01-Aug-20 06:08 38.999941 -121.783001 342 24015ft 285kts
01-Aug-20 06:09 39.075425 -121.814033 342 24017ft 285kts
01-Aug-20 06:10 39.151324 -121.845307 342 24016ft 285kts
01-Aug-20 06:11 39.226944 -121.876532 342 24021ft 285kts
01-Aug-20 06:12 39.302718 -121.907888 342 24041ft 286kts
01-Aug-20 06:13 39.378339 -121.939253 342 24045ft 286kts
01-Aug-20 06:14 39.454389 -121.970861 342 24053ft 287kts
01-Aug-20 06:15 39.530386 -122.002507 342 24053ft 287kts
01-Aug-20 06:16 39.606646 -122.034311 342 24051ft 287kts
01-Aug-20 06:17 39.682720 -122.066080 342 24051ft 287kts
01-Aug-20 06:18 39.758892 -122.097919 342 24050ft 287kts
01-Aug-20 06:19 39.835239 -122.129841 342 24049ft 287kts
01-Aug-20 06:20 39.911554 -122.161708 342 24049ft 287kts
01-Aug-20 06:21 39.987681 -122.193331 342 24048ft 287kts
01-Aug-20 06:22 40.064040 -122.224379 343 24048ft 287kts
01-Aug-20 06:23 40.141342 -122.251322 346 24048ft 287kts
01-Aug-20 06:24 40.219498 -122.274735 347 24048ft 287kts
01-Aug-20 06:25 40.297717 -122.296907 347 24048ft 287kts
01-Aug-20 06:26 40.375708 -122.318652 348 24049ft 287kts
01-Aug-20 06:27 40.454300 -122.340487 348 24049ft 287kts
01-Aug-20 06:28 40.532571 -122.362242 348 24051ft 287kts
01-Aug-20 06:29 40.610700 -122.383999 348 24052ft 287kts
01-Aug-20 06:30 40.689090 -122.405874 348 24063ft 287kts
01-Aug-20 06:31 40.767236 -122.427739 347 24069ft 287kts
01-Aug-20 06:32 40.845192 -122.449585 347 24116ft 286kts
01-Aug-20 06:33 40.923377 -122.471556 347 24108ft 287kts
01-Aug-20 06:34 41.001828 -122.493668 347 24144ft 286kts
01-Aug-20 06:35 41.079738 -122.515649 347 24157ft 287kts
01-Aug-20 06:36 41.158136 -122.537840 347 24176ft 287kts
01-Aug-20 06:37 41.236105 -122.559941 347 24198ft 287kts
01-Aug-20 06:38 41.314197 -122.582140 347 24198ft 287kts
01-Aug-20 06:39 41.392653 -122.604508 347 24193ft 288kts
01-Aug-20 06:40 41.471231 -122.626954 347 24195ft 288kts
01-Aug-20 06:41 41.549555 -122.649361 347 24190ft 288kts
01-Aug-20 06:42 41.628264 -122.671916 347 24190ft 289kts
01-Aug-20 06:43 41.706748 -122.694437 347 24187ft 289kts
01-Aug-20 06:44 41.785418 -122.717035 347 24188ft 289kts
01-Aug-20 06:45 41.863988 -122.739612 347 24186ft 289kts
01-Aug-20 06:46 41.942887 -122.762270 347 24185ft 289kts
01-Aug-20 06:47 42.021404 -122.784748 348 24183ft 289kts
01-Aug-20 06:48 42.100335 -122.807157 348 24175ft 289kts
01-Aug-20 06:49 42.179110 -122.828915 348 24170ft 289kts
01-Aug-20 06:50 42.257602 -122.852297 346 24165ft 289kts
01-Aug-20 06:51 42.336040 -122.876107 347 24163ft 289kts
01-Aug-20 06:52 42.414685 -122.898334 348 24170ft 288kts
01-Aug-20 06:53 42.493482 -122.919005 349 24168ft 288kts
01-Aug-20 06:54 42.572668 -122.936672 351 24183ft 288kts
01-Aug-20 06:55 42.652103 -122.952341 351 24187ft 288kts
01-Aug-20 06:56 42.731476 -122.967363 352 24190ft 287kts
01-Aug-20 06:57 42.810623 -122.982157 352 24199ft 287kts
01-Aug-20 06:58 42.889804 -122.996938 352 24195ft 287kts
01-Aug-20 06:59 42.969128 -123.011768 352 24194ft 287kts
01-Aug-20 07:00 43.048373 -123.026611 352 24193ft 287kts
01-Aug-20 07:01 43.127756 -123.041515 352 24186ft 287kts
01-Aug-20 07:02 43.206934 -123.056415 352 24184ft 287kts
01-Aug-20 07:03 43.286420 -123.071399 352 24184ft 287kts
01-Aug-20 07:04 43.365663 -123.086361 352 24185ft 287kts
01-Aug-20 07:05 43.444945 -123.101353 352 24192ft 287kts
01-Aug-20 07:06 43.524189 -123.116357 352 24194ft 287kts
01-Aug-20 07:07 43.603534 -123.131399 352 24197ft 287kts
01-Aug-20 07:08 43.683017 -123.146461 352 24199ft 287kts
01-Aug-20 07:09 43.762251 -123.161459 352 24199ft 287kts
01-Aug-20 07:10 43.841566 -123.176402 352 24200ft 287kts
01-Aug-20 07:11 43.921001 -123.191268 352 24197ft 287kts
01-Aug-20 07:12 44.000257 -123.205824 352 24199ft 287kts
01-Aug-20 07:13 44.079747 -123.219357 353 24199ft 287kts
01-Aug-20 07:14 44.159756 -123.218894 4 24200ft 287kts
01-Aug-20 07:15 44.239085 -123.207545 6 24197ft 287kts
01-Aug-20 07:16 44.318602 -123.193144 7 24194ft 287kts
01-Aug-20 07:17 44.387151 -123.144487 48 24035ft 292kts
01-Aug-20 07:18 44.441013 -123.052606 51 22050ft 303kts
01-Aug-20 07:19 44.496825 -122.968024 30 19854ft 293kts
01-Aug-20 07:20 44.570178 -122.922009 22 17655ft 284kts
01-Aug-20 07:21 44.642254 -122.880422 22 15457ft 271kts
01-Aug-20 07:22 44.707785 -122.842609 22 13256ft 243kts
01-Aug-20 07:23 44.768819 -122.807358 22 11264ft 227kts
01-Aug-20 07:24 44.824147 -122.773206 39 11004ft 208kts
01-Aug-20 07:25 44.868699 -122.725964 23 10560ft 217kts
01-Aug-20 07:26 44.926876 -122.692012 22 8813ft 226kts
01-Aug-20 07:27 44.983630 -122.659103 22 7059ft 216kts
01-Aug-20 07:28 45.033915 -122.617527 49 5268ft 210kts
01-Aug-20 07:29 45.083191 -122.576393 22 3473ft 206kts
01-Aug-20 07:30 45.134088 -122.546792 22 3013ft 196kts
01-Aug-20 07:31 45.184235 -122.517643 22 3008ft 195kts
01-Aug-20 07:32 45.233067 -122.483902 46 3013ft 196kts
01-Aug-20 07:33 45.276692 -122.440012 22 3008ft 196kts
01-Aug-20 07:34 45.327208 -122.410408 23 2999ft 196kts
01-Aug-20 07:35 45.376021 -122.375023 26 2995ft 196kts
01-Aug-20 07:36 45.424814 -122.340288 26 2997ft 196kts
01-Aug-20 07:37 45.465263 -122.359605 270 2767ft 176kts
01-Aug-20 07:38 45.456138 -122.430314 282 1722ft 170kts
01-Aug-20 07:39 45.491926 -122.446881 355 1698ft 135kts
01-Aug-20 07:40 45.527462 -122.458903 330 1696ft 130kts
01-Aug-20 07:41 45.545754 -122.494801 298 1471ft 102kts
01-Aug-20 07:43 45.558807 -122.528316 300 923ft 89kts
01-Aug-20 07:44 45.570968 -122.559444 300 484ft 87kts
01-Aug-20 07:45 45.581906 -122.587801 299 34ft 63kts
01-Aug-20 07:46 45.586260 -122.602980 266 34ft 26kts
01-Aug-20 07:47 45.586164 -122.607317 256 34ft 9kts
01-Aug-20 07:48 45.588021 -122.606891 40 34ft 16kts
01-Aug-20 07:49 45.589603 -122.601852 117 34ft 13kts
01-Aug-20 07:50 45.587623 -122.596404 114 34ft 17kts
01-Aug-20 07:51 45.587665 -122.593940 28 34ft 0kts

Navigation Log

Ident Type
Flight plan parsing failed, navigation log unavailable